Terminal Aerodrome Forecast
Issued by NWS Lake Charles, LA

Home | Current Version | Previous Version | Text Only | Print | Product List | Glossary On
Versions: 1 2 3 4 5 6 7 8 9 10 11 12 13 14
000
FTUS44 KLCH 281300 AAA
TAFBPT
TAF AMD
KBPT 281332Z 2814/2912 26007KT P6SM SKC
     FM281500 26008KT P6SM FEW040
     FM282000 26008KT P6SM VCTS SCT040CB
     FM282300 VRB05KT P6SM SCT060 SCT220=

USA.gov is the U.S. government's official web portal to all federal, state and local government web resources and services.